Time;durP1;ratioP1;P1;durP2;ratioP2;P2;SDS_P1;SDS_P2;PMS_P1;PMS_P2;Temp;Humidity;BMP_temperature;BMP_pressure;BME280_temperature;BME280_humidity;BME280_pressure;Samples;Min_cycle;Max_cycle;Signal;HPM_P1;HPM_P2
2022/01/27 00:05:19;;;;;;;;;;;12.10;72.10;;;;;;5003045;28;20281;-80
2022/01/27 00:07:57;;;;;;;;;;;12.10;72.10;;;;;;4985466;28;19906;-78
2022/01/27 00:10:48;;;;;;;;;;;12.20;72.00;;;;;;4984708;28;19906;-80
2022/01/27 00:13:15;;;;;;;;;;;12.20;72.30;;;;;;4983578;28;19909;-78
2022/01/27 00:15:42;;;;;;;;;;;12.20;72.20;;;;;;4998446;28;20295;-79
2022/01/27 00:18:14;;;;;;;;;;;12.20;72.00;;;;;;5000350;28;19942;-77
2022/01/27 00:20:40;;;;;;;;;;;12.30;71.70;;;;;;4999111;28;20301;-78
2022/01/27 00:23:05;;;;;;;;;;;12.20;72.00;;;;;;4981289;28;19909;-78
2022/01/27 00:25:31;;;;;;;;;;;12.20;71.70;;;;;;4998092;28;19905;-78
2022/01/27 00:27:56;;;;;;;;;;;12.30;71.60;;;;;;4981490;28;19913;-79
2022/01/27 00:30:22;;;;;;;;;;;12.30;71.50;;;;;;4982471;28;20434;-78
2022/01/27 00:32:47;;;;;;;;;;;12.30;71.50;;;;;;4984156;28;20415;-79
2022/01/27 00:35:13;;;;;;;;;;;12.30;71.40;;;;;;4985053;28;19981;-79
2022/01/27 00:37:38;;;;;;;;;;;12.30;71.30;;;;;;4985927;28;19965;-79
2022/01/27 00:40:05;;;;;;;;;;;12.30;71.30;;;;;;4985023;28;20370;-78
2022/01/27 00:42:31;;;;;;;;;;;12.30;71.60;;;;;;5002303;28;19905;-78
2022/01/27 00:44:58;;;;;;;;;;;12.30;70.90;;;;;;4984370;28;19956;-78
2022/01/27 00:47:23;;;;;;;;;;;12.30;71.50;;;;;;5002587;28;19905;-78
2022/01/27 00:49:49;;;;;;;;;;;12.20;71.00;;;;;;5002224;28;19929;-78
2022/01/27 00:52:21;;;;;;;;;;;12.20;71.30;;;;;;4983496;28;19906;-78
2022/01/27 00:54:47;;;;;;;;;;;12.30;71.30;;;;;;4983625;28;19956;-80
2022/01/27 00:57:31;;;;;;;;;;;12.30;71.30;;;;;;4982175;28;19909;-78
2022/01/27 01:00:00;;;;;;;;;;;12.30;71.40;;;;;;5000247;28;20056;-78
2022/01/27 01:07:39;;;;;;;;;;;12.20;71.40;;;;;;4980375;28;19910;-78
2022/01/27 01:10:54;;;;;;;;;;;12.20;70.90;;;;;;4962745;28;19912;-78
2022/01/27 01:15:40;;;;;;;;;;;12.20;71.30;;;;;;4997113;28;19910;-79
2022/01/27 01:31:54;;;;;;;;;;;12.10;71.40;;;;;;5004304;28;19956;-78
2022/01/27 01:34:23;;;;;;;;;;;12.10;71.80;;;;;;5004047;28;19914;-79
2022/01/27 01:39:18;;;;;;;;;;;12.10;71.80;;;;;;4990119;28;19906;-78
2022/01/27 01:41:43;;;;;;;;;;;12.10;71.80;;;;;;4984070;28;20496;-79
2022/01/27 01:44:10;;;;;;;;;;;12.00;71.70;;;;;;4984263;28;20033;-80
2022/01/27 01:46:35;;;;;;;;;;;12.00;71.80;;;;;;4979193;28;19956;-77
2022/01/27 01:49:01;;;;;;;;;;;12.00;71.90;;;;;;4984957;28;19905;-78
2022/01/27 01:51:28;;;;;;;;;;;12.00;72.00;;;;;;5001717;28;19993;-79
2022/01/27 01:53:54;;;;;;;;;;;12.00;72.00;;;;;;4984299;28;20439;-78
2022/01/27 01:56:20;;;;;;;;;;;12.00;72.00;;;;;;4982775;28;19909;-78
2022/01/27 01:58:45;;;;;;;;;;;12.00;72.00;;;;;;4984345;28;19905;-77
2022/01/27 02:01:11;;;;;;;;;;;12.00;72.00;;;;;;4983757;28;19960;-78
2022/01/27 02:03:36;;;;;;;;;;;12.00;71.90;;;;;;4983646;28;19906;-78
2022/01/27 02:06:02;;;;;;;;;;;12.00;72.00;;;;;;5000923;28;19912;-78
2022/01/27 02:08:40;;;;;;;;;;;12.00;72.10;;;;;;4983623;28;19929;-78
2022/01/27 02:19:27;;;;;;;;;;;11.90;72.00;;;;;;5000092;28;19925;-77
2022/01/27 02:21:59;;;;;;;;;;;11.90;72.10;;;;;;4981736;28;19913;-77
2022/01/27 02:24:26;;;;;;;;;;;11.90;71.90;;;;;;4982239;28;19906;-78
2022/01/27 02:26:52;;;;;;;;;;;11.90;71.90;;;;;;4981476;28;20008;-78
2022/01/27 02:29:18;;;;;;;;;;;11.90;71.90;;;;;;4981672;28;19956;-77
2022/01/27 02:31:44;;;;;;;;;;;11.90;71.90;;;;;;4980760;28;19910;-78
2022/01/27 02:34:10;;;;;;;;;;;11.90;72.00;;;;;;4998669;28;20013;-77
2022/01/27 02:36:35;;;;;;;;;;;11.80;72.00;;;;;;4980172;28;19953;-78
2022/01/27 02:39:02;;;;;;;;;;;11.80;72.10;;;;;;4998863;28;19913;-78
2022/01/27 02:41:30;;;;;;;;;;;11.80;72.00;;;;;;4997099;28;19910;-78
2022/01/27 02:43:56;;;;;;;;;;;11.80;72.00;;;;;;4979197;28;19905;-77
2022/01/27 02:46:25;;;;;;;;;;;11.80;72.00;;;;;;4996120;28;20404;-77
2022/01/27 02:48:50;;;;;;;;;;;11.80;72.10;;;;;;4996200;28;19905;-78
2022/01/27 02:51:16;;;;;;;;;;;11.70;72.00;;;;;;4978600;28;20300;-78
2022/01/27 02:53:41;;;;;;;;;;;11.70;72.00;;;;;;4977918;28;20374;-77
2022/01/27 02:56:07;;;;;;;;;;;11.70;72.00;;;;;;4978154;28;19913;-77
2022/01/27 02:58:32;;;;;;;;;;;11.70;72.30;;;;;;4978181;28;20008;-77
2022/01/27 03:00:57;;;;;;;;;;;11.60;72.10;;;;;;4977935;28;20383;-77
2022/01/27 03:03:23;;;;;;;;;;;11.60;72.10;;;;;;4995561;28;19906;-76
2022/01/27 03:05:48;;;;;;;;;;;11.60;72.30;;;;;;4982107;28;20096;-78
2022/01/27 03:08:14;;;;;;;;;;;11.60;72.40;;;;;;4985544;28;20399;-79
2022/01/27 03:10:43;;;;;;;;;;;11.60;72.20;;;;;;4984910;28;19912;-78
2022/01/27 03:13:09;;;;;;;;;;;11.50;72.20;;;;;;4998134;28;20323;-77
2022/01/27 03:15:34;;;;;;;;;;;11.60;72.20;;;;;;4988710;28;19909;-78
2022/01/27 03:17:59;;;;;;;;;;;11.60;72.30;;;;;;4984390;28;19916;-78
2022/01/27 03:20:32;;;;;;;;;;;11.50;72.50;;;;;;4984309;28;19909;-78
2022/01/27 03:22:57;;;;;;;;;;;11.50;72.00;;;;;;5000466;28;19906;-78
2022/01/27 03:25:23;;;;;;;;;;;11.50;72.10;;;;;;4999612;28;20296;-78
2022/01/27 03:27:48;;;;;;;;;;;11.50;72.20;;;;;;4999944;28;19997;-78
2022/01/27 03:30:15;;;;;;;;;;;11.50;72.20;;;;;;4982577;28;19906;-77
2022/01/27 03:32:41;;;;;;;;;;;11.50;72.30;;;;;;4982366;28;19906;-79
2022/01/27 03:35:07;;;;;;;;;;;11.50;72.00;;;;;;5018920;23;20385;-80
2022/01/27 03:37:32;;;;;;;;;;;11.50;72.20;;;;;;4976474;28;19913;-77
2022/01/27 03:39:58;;;;;;;;;;;11.40;72.10;;;;;;4976457;28;19912;-78
2022/01/27 03:42:25;;;;;;;;;;;11.40;72.10;;;;;;4976081;28;19953;-78
2022/01/27 03:44:50;;;;;;;;;;;11.40;72.00;;;;;;4976691;28;19906;-78
2022/01/27 03:47:15;;;;;;;;;;;11.40;72.00;;;;;;4993376;28;19906;-76
2022/01/27 03:49:41;;;;;;;;;;;11.40;72.00;;;;;;4976451;28;20373;-77
2022/01/27 03:52:07;;;;;;;;;;;11.40;72.10;;;;;;4976080;28;19906;-77
2022/01/27 03:54:32;;;;;;;;;;;11.40;72.10;;;;;;4976227;28;19906;-78
2022/01/27 03:57:01;;;;;;;;;;;11.40;72.10;;;;;;4976075;28;19910;-78
2022/01/27 03:59:27;;;;;;;;;;;11.40;71.90;;;;;;4976224;28;20288;-78
2022/01/27 04:01:54;;;;;;;;;;;11.40;71.90;;;;;;4975996;28;19905;-78
2022/01/27 04:04:19;;;;;;;;;;;11.40;72.00;;;;;;4993391;28;19976;-78
2022/01/27 04:06:49;;;;;;;;;;;11.40;72.00;;;;;;4976132;28;19914;-78
2022/01/27 04:09:14;;;;;;;;;;;11.40;72.00;;;;;;4976151;28;19910;-78
2022/01/27 04:11:40;;;;;;;;;;;11.30;71.90;;;;;;4993354;28;19914;-78
2022/01/27 04:14:05;;;;;;;;;;;11.30;71.90;;;;;;4976067;28;19913;-78
2022/01/27 04:16:31;;;;;;;;;;;11.30;71.70;;;;;;4993212;28;19906;-77
2022/01/27 04:18:56;;;;;;;;;;;11.30;71.90;;;;;;4993318;28;19937;-77
2022/01/27 04:21:22;;;;;;;;;;;11.30;71.90;;;;;;4975909;28;19912;-77
2022/01/27 04:23:49;;;;;;;;;;;11.30;72.00;;;;;;4993581;28;20357;-77
2022/01/27 04:26:18;;;;;;;;;;;11.30;71.90;;;;;;4975911;28;19909;-78
2022/01/27 04:28:45;;;;;;;;;;;11.30;71.80;;;;;;4976058;28;19909;-78
2022/01/27 04:31:11;;;;;;;;;;;11.30;71.80;;;;;;4976074;28;19952;-78
2022/01/27 04:33:38;;;;;;;;;;;11.30;72.00;;;;;;4975733;28;19952;-77
2022/01/27 04:36:11;;;;;;;;;;;11.30;72.10;;;;;;4975854;28;19913;-78
2022/01/27 04:39:18;;;;;;;;;;;11.30;71.60;;;;;;4975859;28;19916;-77
2022/01/27 04:41:48;;;;;;;;;;;11.20;71.80;;;;;;4989056;28;19951;-78
2022/01/27 04:44:37;;;;;;;;;;;11.20;71.80;;;;;;4975832;28;20035;-78
2022/01/27 04:47:19;;;;;;;;;;;11.20;71.80;;;;;;4993101;28;19910;-78
2022/01/27 04:49:46;;;;;;;;;;;11.20;71.90;;;;;;4975786;28;19917;-77
2022/01/27 04:52:11;;;;;;;;;;;11.20;71.80;;;;;;4975496;28;19905;-78
2022/01/27 04:54:49;;;;;;;;;;;11.20;71.70;;;;;;4975616;28;19965;-78
2022/01/27 04:57:15;;;;;;;;;;;11.20;72.00;;;;;;4975601;28;19913;-77
2022/01/27 04:59:43;;;;;;;;;;;11.20;71.70;;;;;;4975926;28;19913;-78
2022/01/27 05:02:27;;;;;;;;;;;11.20;71.80;;;;;;4975437;28;19909;-78
2022/01/27 05:04:53;;;;;;;;;;;11.20;71.80;;;;;;4975876;28;20000;-78
2022/01/27 05:07:18;;;;;;;;;;;11.10;71.40;;;;;;4975757;28;19956;-78
2022/01/27 05:09:52;;;;;;;;;;;11.20;71.90;;;;;;4975646;28;19905;-79
2022/01/27 05:12:29;;;;;;;;;;;11.10;71.90;;;;;;4992725;28;19905;-79
2022/01/27 05:14:58;;;;;;;;;;;11.10;71.70;;;;;;4974781;28;20399;-78
2022/01/27 05:17:24;;;;;;;;;;;11.10;72.00;;;;;;4976633;28;19977;-79
2022/01/27 05:19:50;;;;;;;;;;;11.10;71.70;;;;;;4978921;28;19917;-79
2022/01/27 05:22:16;;;;;;;;;;;11.10;71.70;;;;;;4978743;28;20355;-78
2022/01/27 05:24:42;;;;;;;;;;;11.10;71.60;;;;;;4978333;28;19953;-78
2022/01/27 05:27:07;;;;;;;;;;;11.10;71.70;;;;;;4978761;28;19913;-80
2022/01/27 05:29:33;;;;;;;;;;;11.10;71.70;;;;;;4978527;28;19910;-80
2022/01/27 05:31:58;;;;;;;;;;;11.10;71.70;;;;;;4968048;28;19934;-78
2022/01/27 05:34:24;;;;;;;;;;;11.10;71.70;;;;;;4978458;28;20355;-78
2022/01/27 05:36:49;;;;;;;;;;;11.10;71.40;;;;;;4978373;28;19940;-77
2022/01/27 05:39:15;;;;;;;;;;;11.10;71.40;;;;;;4978573;28;20005;-78
2022/01/27 05:41:42;;;;;;;;;;;11.00;71.80;;;;;;4994495;28;19917;-79
2022/01/27 05:44:07;;;;;;;;;;;11.10;71.80;;;;;;4978414;28;19910;-79
2022/01/27 05:46:33;;;;;;;;;;;11.00;71.70;;;;;;4995832;28;20274;-79
2022/01/27 05:48:58;;;;;;;;;;;11.00;71.50;;;;;;4979874;28;19906;-80
2022/01/27 05:51:24;;;;;;;;;;;11.00;71.50;;;;;;4969769;28;19920;-80
2022/01/27 05:53:49;;;;;;;;;;;11.00;71.50;;;;;;4978024;28;19916;-80
2022/01/27 05:56:15;;;;;;;;;;;11.00;71.50;;;;;;4977792;28;19961;-79
2022/01/27 05:58:40;;;;;;;;;;;10.90;71.60;;;;;;4976697;28;20352;-81
2022/01/27 06:01:06;;;;;;;;;;;11.00;71.70;;;;;;4977283;28;19910;-83
2022/01/27 06:03:31;;;;;;;;;;;11.00;71.60;;;;;;4977661;28;19905;-82
2022/01/27 06:05:57;;;;;;;;;;;11.00;71.50;;;;;;4977644;28;20395;-82
2022/01/27 06:08:22;;;;;;;;;;;11.00;71.60;;;;;;4976589;28;20288;-82
2022/01/27 06:10:50;;;;;;;;;;;11.00;71.50;;;;;;4976075;28;19913;-79
2022/01/27 06:13:15;;;;;;;;;;;11.00;71.70;;;;;;4975730;28;19912;-78
2022/01/27 06:15:41;;;;;;;;;;;11.00;71.50;;;;;;4975957;28;19909;-78
2022/01/27 06:18:06;;;;;;;;;;;10.90;71.40;;;;;;4976141;28;19910;-80
2022/01/27 06:20:32;;;;;;;;;;;11.00;71.70;;;;;;4976085;28;19952;-79
2022/01/27 06:22:58;;;;;;;;;;;11.00;71.60;;;;;;4975579;28;20632;-77
2022/01/27 06:25:24;;;;;;;;;;;11.00;71.60;;;;;;4976155;28;19909;-78
2022/01/27 06:27:50;;;;;;;;;;;10.90;71.50;;;;;;4957332;28;20821;-77
2022/01/27 06:30:15;;;;;;;;;;;10.90;71.30;;;;;;4957744;28;20013;-78
2022/01/27 06:32:44;;;;;;;;;;;10.90;71.70;;;;;;4970323;28;19996;-79
2022/01/27 06:35:10;;;;;;;;;;;10.90;71.10;;;;;;4975716;28;19924;-78
2022/01/27 06:37:36;;;;;;;;;;;10.90;71.80;;;;;;4974968;28;19909;-77
2022/01/27 06:40:02;;;;;;;;;;;10.90;71.30;;;;;;4975541;28;20381;-79
2022/01/27 06:42:27;;;;;;;;;;;10.90;71.50;;;;;;4991496;28;19996;-79
2022/01/27 06:44:53;;;;;;;;;;;10.90;71.60;;;;;;4992009;28;20400;-79
2022/01/27 06:47:18;;;;;;;;;;;10.90;71.40;;;;;;4991940;28;19909;-79
2022/01/27 06:49:44;;;;;;;;;;;10.90;71.50;;;;;;4992392;28;20103;-80
2022/01/27 06:52:10;;;;;;;;;;;10.90;71.60;;;;;;4984563;28;19917;-78
2022/01/27 06:54:35;;;;;;;;;;;10.90;71.50;;;;;;4956930;28;19993;-79
2022/01/27 06:57:01;;;;;;;;;;;10.90;71.20;;;;;;4972549;28;19913;-80
2022/01/27 06:59:27;;;;;;;;;;;10.90;71.50;;;;;;4992210;28;19910;-79
2022/01/27 07:01:52;;;;;;;;;;;10.90;71.60;;;;;;4990858;28;20800;-79
2022/01/27 07:04:18;;;;;;;;;;;10.90;71.60;;;;;;4991837;28;19921;-79
2022/01/27 07:06:44;;;;;;;;;;;10.70;71.10;;;;;;4991524;28;19917;-80
2022/01/27 07:09:09;;;;;;;;;;;10.90;71.50;;;;;;4984036;28;20675;-77
2022/01/27 07:11:34;;;;;;;;;;;10.90;71.60;;;;;;4975017;28;19964;-78
2022/01/27 07:14:00;;;;;;;;;;;10.90;71.60;;;;;;4991894;28;19913;-78
2022/01/27 07:16:25;;;;;;;;;;;10.90;71.80;;;;;;4962374;28;20592;-79
2022/01/27 07:18:52;;;;;;;;;;;10.90;71.80;;;;;;4970880;28;19921;-78
2022/01/27 07:21:20;;;;;;;;;;;10.90;71.80;;;;;;4889006;28;20171;-77
2022/01/27 07:23:46;;;;;;;;;;;10.80;71.70;;;;;;4897054;28;20137;-78
2022/01/27 07:26:13;;;;;;;;;;;10.80;71.70;;;;;;4974110;28;20077;-77
2022/01/27 07:28:39;;;;;;;;;;;10.80;71.50;;;;;;4974629;28;19961;-80
2022/01/27 07:31:04;;;;;;;;;;;10.80;71.70;;;;;;4975382;28;19922;-78
2022/01/27 07:33:30;;;;;;;;;;;10.80;72.50;;;;;;4971644;28;19909;-78
2022/01/27 07:35:55;;;;;;;;;;;10.80;72.00;;;;;;4960647;28;19917;-78
2022/01/27 07:38:23;;;;;;;;;;;10.80;72.10;;;;;;4958650;28;19922;-78
2022/01/27 07:40:49;;;;;;;;;;;10.80;71.90;;;;;;4971041;28;19910;-78
2022/01/27 07:43:15;;;;;;;;;;;10.80;72.00;;;;;;4970704;28;19910;-77
2022/01/27 07:45:40;;;;;;;;;;;10.80;72.10;;;;;;4960574;28;19916;-78
2022/01/27 07:48:06;;;;;;;;;;;10.70;72.00;;;;;;4967157;28;19913;-78
2022/01/27 07:50:31;;;;;;;;;;;10.80;72.10;;;;;;4989337;28;19980;-77
2022/01/27 07:52:57;;;;;;;;;;;10.80;72.10;;;;;;4971356;28;19906;-78
2022/01/27 07:55:22;;;;;;;;;;;10.80;72.30;;;;;;4971749;28;19905;-78
2022/01/27 07:57:48;;;;;;;;;;;10.80;72.30;;;;;;4989282;28;19914;-77
2022/01/27 08:00:14;;;;;;;;;;;10.80;72.30;;;;;;4972249;28;19913;-79
2022/01/27 08:02:40;;;;;;;;;;;10.80;72.40;;;;;;4971957;28;19910;-77
2022/01/27 08:05:06;;;;;;;;;;;10.80;72.50;;;;;;4971873;28;20388;-78
2022/01/27 08:07:31;;;;;;;;;;;10.80;72.50;;;;;;4971754;28;19964;-77
2022/01/27 08:09:57;;;;;;;;;;;10.80;72.50;;;;;;4972020;28;19953;-78
2022/01/27 08:12:22;;;;;;;;;;;10.80;72.60;;;;;;4988668;28;19917;-77
2022/01/27 08:14:48;;;;;;;;;;;10.80;72.50;;;;;;4960730;28;19949;-77
2022/01/27 08:17:14;;;;;;;;;;;10.80;72.50;;;;;;4974990;28;19920;-78
2022/01/27 08:19:39;;;;;;;;;;;10.80;72.60;;;;;;4971861;28;19959;-77
2022/01/27 08:22:07;;;;;;;;;;;10.80;72.70;;;;;;4971852;28;20372;-78
2022/01/27 08:24:32;;;;;;;;;;;10.80;72.60;;;;;;4971844;28;19916;-78
2022/01/27 08:27:03;;;;;;;;;;;10.80;72.70;;;;;;4971610;28;19906;-78
2022/01/27 08:29:35;;;;;;;;;;;10.80;72.70;;;;;;4971883;28;19910;-77
2022/01/27 08:32:06;;;;;;;;;;;10.80;72.70;;;;;;4983129;28;19954;-79
2022/01/27 08:34:35;;;;;;;;;;;10.80;72.80;;;;;;4988693;28;19914;-77
2022/01/27 08:37:02;;;;;;;;;;;10.80;72.80;;;;;;4971818;28;20056;-77
2022/01/27 08:39:28;;;;;;;;;;;10.80;72.90;;;;;;4971452;28;19913;-78
2022/01/27 08:41:53;;;;;;;;;;;10.80;72.90;;;;;;4971338;28;19916;-78
2022/01/27 08:44:19;;;;;;;;;;;10.80;72.90;;;;;;4972168;28;19913;-78
2022/01/27 08:46:44;;;;;;;;;;;10.80;73.00;;;;;;4990345;28;19925;-78
2022/01/27 08:49:10;;;;;;;;;;;10.70;73.00;;;;;;4972249;28;19905;-79
2022/01/27 08:51:36;;;;;;;;;;;10.80;73.10;;;;;;4972483;28;20407;-77
2022/01/27 08:54:01;;;;;;;;;;;10.80;73.10;;;;;;4974852;28;19909;-79
2022/01/27 08:56:27;;;;;;;;;;;10.80;73.10;;;;;;4975618;28;19909;-78
2022/01/27 08:58:54;;;;;;;;;;;10.70;73.10;;;;;;4975136;28;19910;-78
2022/01/27 09:01:21;;;;;;;;;;;10.70;73.20;;;;;;4975335;28;19906;-78
2022/01/27 09:03:46;;;;;;;;;;;10.80;73.40;;;;;;4975028;28;19910;-77
2022/01/27 09:06:12;;;;;;;;;;;10.80;73.10;;;;;;4975205;28;20321;-79
2022/01/27 09:08:37;;;;;;;;;;;10.70;73.30;;;;;;4975104;28;20408;-77
2022/01/27 09:11:03;;;;;;;;;;;10.80;73.30;;;;;;4975000;28;19906;-78
2022/01/27 09:13:28;;;;;;;;;;;10.70;73.40;;;;;;4974763;28;20296;-78
2022/01/27 09:15:58;;;;;;;;;;;10.80;73.40;;;;;;4992692;28;19909;-77
2022/01/27 09:18:23;;;;;;;;;;;10.70;73.40;;;;;;4974882;28;19910;-78
2022/01/27 09:20:49;;;;;;;;;;;10.70;73.40;;;;;;4992544;28;20059;-77
2022/01/27 09:23:14;;;;;;;;;;;10.70;73.50;;;;;;4974419;28;19918;-77
2022/01/27 09:25:44;;;;;;;;;;;10.70;73.50;;;;;;4992240;28;19916;-77
2022/01/27 09:28:10;;;;;;;;;;;10.70;73.50;;;;;;4991853;28;19913;-78
2022/01/27 09:30:36;;;;;;;;;;;10.70;73.60;;;;;;4991824;28;20000;-78
2022/01/27 09:33:01;;;;;;;;;;;10.70;73.70;;;;;;4974387;28;20033;-78
2022/01/27 09:35:28;;;;;;;;;;;10.70;73.70;;;;;;4974263;28;19925;-78
2022/01/27 09:37:54;;;;;;;;;;;10.70;73.80;;;;;;4974680;28;19918;-78
2022/01/27 09:40:19;;;;;;;;;;;10.70;73.80;;;;;;4991728;28;19921;-78
2022/01/27 09:42:50;;;;;;;;;;;10.70;73.90;;;;;;4991771;28;19917;-78
2022/01/27 09:45:16;;;;;;;;;;;10.70;73.80;;;;;;4991971;28;19913;-77
2022/01/27 09:47:43;;;;;;;;;;;10.70;73.90;;;;;;4974345;28;19909;-77
2022/01/27 09:50:24;;;;;;;;;;;10.70;73.90;;;;;;4991879;28;19910;-78
2022/01/27 09:52:50;;;;;;;;;;;10.80;74.00;;;;;;4973778;28;19918;-78
2022/01/27 09:55:16;;;;;;;;;;;10.70;74.00;;;;;;4974119;28;19906;-79
2022/01/27 09:57:41;;;;;;;;;;;10.70;74.00;;;;;;4974103;28;19960;-78
2022/01/27 10:00:07;;;;;;;;;;;10.70;74.00;;;;;;4974069;28;20288;-77
2022/01/27 10:02:32;;;;;;;;;;;10.70;74.10;;;;;;4973596;28;19925;-78
2022/01/27 10:04:58;;;;;;;;;;;10.70;74.20;;;;;;4973843;28;19916;-78
2022/01/27 10:07:23;;;;;;;;;;;10.70;74.20;;;;;;4974055;28;19916;-78
2022/01/27 10:10:08;;;;;;;;;;;10.70;74.30;;;;;;4973797;28;19933;-78
2022/01/27 10:12:55;;;;;;;;;;;10.70;74.30;;;;;;4973690;28;20403;-77
2022/01/27 10:15:22;;;;;;;;;;;10.70;74.30;;;;;;4973423;28;19910;-77
2022/01/27 10:18:08;;;;;;;;;;;10.70;74.20;;;;;;4974044;28;20373;-79
2022/01/27 10:20:34;;;;;;;;;;;10.70;74.30;;;;;;4973565;28;19910;-78
2022/01/27 10:23:10;;;;;;;;;;;10.70;74.30;;;;;;4973568;28;19914;-77
2022/01/27 10:25:46;;;;;;;;;;;10.70;74.40;;;;;;4973487;28;20514;-78
2022/01/27 10:28:33;;;;;;;;;;;10.70;74.50;;;;;;4974165;28;19914;-77
2022/01/27 10:31:00;;;;;;;;;;;10.60;74.50;;;;;;4965585;28;19906;-77
2022/01/27 10:33:25;;;;;;;;;;;10.70;74.60;;;;;;4969626;28;19918;-77
2022/01/27 10:35:51;;;;;;;;;;;10.70;74.70;;;;;;4974355;28;20292;-78
2022/01/27 10:38:18;;;;;;;;;;;10.70;74.70;;;;;;4972260;28;19925;-77
2022/01/27 10:40:45;;;;;;;;;;;10.70;74.80;;;;;;4975892;28;19910;-79
2022/01/27 10:43:14;;;;;;;;;;;10.70;74.70;;;;;;4976176;28;19906;-77
2022/01/27 10:45:59;;;;;;;;;;;10.70;74.90;;;;;;4976120;28;20098;-77
2022/01/27 10:48:28;;;;;;;;;;;10.70;74.90;;;;;;4975980;28;19913;-78
2022/01/27 10:51:01;;;;;;;;;;;10.70;75.00;;;;;;4976036;28;19913;-79
2022/01/27 10:53:45;;;;;;;;;;;10.70;75.00;;;;;;4975889;28;19913;-79
2022/01/27 10:56:14;;;;;;;;;;;10.70;75.00;;;;;;4975922;28;19909;-78
2022/01/27 10:58:41;;;;;;;;;;;10.70;75.10;;;;;;4975700;28;19964;-79
2022/01/27 11:01:07;;;;;;;;;;;10.70;75.10;;;;;;4975625;28;20430;-77
2022/01/27 11:03:32;;;;;;;;;;;10.70;75.20;;;;;;4992983;28;20013;-79
2022/01/27 11:06:06;;;;;;;;;;;10.70;75.20;;;;;;4980521;28;20000;-78
2022/01/27 11:08:31;;;;;;;;;;;10.70;75.20;;;;;;4962901;28;19917;-78
2022/01/27 11:10:57;;;;;;;;;;;10.70;75.30;;;;;;4975234;28;19914;-77
2022/01/27 11:13:24;;;;;;;;;;;10.70;75.30;;;;;;4975374;28;20284;-79
2022/01/27 11:15:53;;;;;;;;;;;10.70;75.30;;;;;;4972935;28;19905;-80
2022/01/27 11:18:20;;;;;;;;;;;10.70;75.30;;;;;;4989882;28;20576;-77
2022/01/27 11:21:07;;;;;;;;;;;10.70;75.30;;;;;;4972694;28;19917;-78
2022/01/27 11:26:09;;;;;;;;;;;10.70;75.10;;;;;;4990136;28;20266;-78
2022/01/27 11:28:36;;;;;;;;;;;10.80;75.00;;;;;;4990259;28;20120;-77
2022/01/27 11:31:21;;;;;;;;;;;10.80;74.80;;;;;;4972744;28;20541;-78
2022/01/27 11:33:58;;;;;;;;;;;10.90;74.70;;;;;;4971984;28;19953;-79
2022/01/27 11:36:26;;;;;;;;;;;10.90;74.60;;;;;;4972042;28;20365;-77
2022/01/27 11:38:51;;;;;;;;;;;10.90;74.60;;;;;;4972216;28;19918;-77
2022/01/27 11:41:36;;;;;;;;;;;10.90;74.70;;;;;;4972626;28;20675;-78
2022/01/27 11:44:21;;;;;;;;;;;10.90;74.70;;;;;;4972564;28;19968;-77
2022/01/27 11:47:06;;;;;;;;;;;10.90;74.70;;;;;;4985985;28;19914;-79
2022/01/27 11:50:23;;;;;;;;;;;11.00;74.80;;;;;;4972272;28;19959;-79
2022/01/27 11:52:51;;;;;;;;;;;11.00;74.80;;;;;;4894893;29;19917;-79
2022/01/27 11:55:16;;;;;;;;;;;11.00;74.70;;;;;;4894778;29;19915;-78
2022/01/27 11:57:43;;;;;;;;;;;11.00;74.70;;;;;;4946862;28;20305;-77
2022/01/27 12:00:13;;;;;;;;;;;11.00;74.80;;;;;;4972425;28;20327;-78
2022/01/27 12:02:58;;;;;;;;;;;11.00;74.80;;;;;;4971225;28;19914;-79
2022/01/27 12:05:23;;;;;;;;;;;11.00;74.60;;;;;;4972188;28;20339;-78
2022/01/27 12:08:08;;;;;;;;;;;11.00;74.80;;;;;;4972358;28;19910;-79
2022/01/27 12:10:45;;;;;;;;;;;11.00;74.90;;;;;;4971890;28;19913;-78
2022/01/27 12:13:36;;;;;;;;;;;11.00;74.90;;;;;;4972390;28;19917;-77
2022/01/27 12:19:00;;;;;;;;;;;11.00;75.00;;;;;;4989224;28;20376;-77
2022/01/27 12:21:35;;;;;;;;;;;11.00;75.00;;;;;;4971473;28;19968;-77
2022/01/27 12:24:13;;;;;;;;;;;11.00;74.90;;;;;;4984317;28;19913;-79
2022/01/27 12:27:11;;;;;;;;;;;11.00;75.10;;;;;;4990676;28;19942;-79
2022/01/27 12:29:36;;;;;;;;;;;11.00;75.10;;;;;;4961166;28;19906;-77
2022/01/27 12:32:02;;;;;;;;;;;11.00;75.10;;;;;;4964953;28;20339;-77
2022/01/27 12:34:28;;;;;;;;;;;11.00;75.20;;;;;;4975519;28;19921;-75
2022/01/27 12:37:02;;;;;;;;;;;11.00;75.10;;;;;;4993077;28;19906;-78
2022/01/27 12:39:30;;;;;;;;;;;11.00;75.20;;;;;;4990231;28;19920;-77
2022/01/27 12:41:58;;;;;;;;;;;11.00;75.20;;;;;;4980451;28;19977;-78
2022/01/27 12:44:25;;;;;;;;;;;11.00;75.60;;;;;;4974923;28;19917;-78
2022/01/27 12:47:11;;;;;;;;;;;11.00;75.20;;;;;;4963932;28;20005;-78
2022/01/27 12:49:40;;;;;;;;;;;11.00;75.30;;;;;;4956369;28;19909;-78
2022/01/27 12:52:07;;;;;;;;;;;11.00;75.20;;;;;;4955994;28;20365;-78
2022/01/27 12:54:33;;;;;;;;;;;11.00;75.30;;;;;;4956252;28;19910;-78
2022/01/27 12:56:58;;;;;;;;;;;11.00;75.20;;;;;;4955708;28;20022;-79
2022/01/27 12:59:28;;;;;;;;;;;11.00;75.40;;;;;;4958631;28;19913;-82
2022/01/27 13:02:05;;;;;;;;;;;11.00;75.40;;;;;;4974004;28;19916;-80
2022/01/27 13:04:31;;;;;;;;;;;11.00;75.30;;;;;;4975612;28;19910;-78
2022/01/27 13:06:57;;;;;;;;;;;11.00;75.40;;;;;;4973736;28;19920;-79
2022/01/27 13:09:23;;;;;;;;;;;11.00;75.50;;;;;;4974915;28;19916;-78
2022/01/27 13:11:51;;;;;;;;;;;11.00;75.40;;;;;;4975004;28;19906;-79
2022/01/27 13:14:16;;;;;;;;;;;11.10;75.50;;;;;;4976096;28;19913;-80
2022/01/27 13:16:45;;;;;;;;;;;11.00;75.50;;;;;;4975235;28;20365;-80
2022/01/27 13:19:35;;;;;;;;;;;11.00;75.60;;;;;;4975569;28;19956;-79
2022/01/27 13:22:01;;;;;;;;;;;11.00;75.60;;;;;;4991875;28;19964;-80
2022/01/27 13:24:27;;;;;;;;;;;11.00;75.70;;;;;;4975189;28;20443;-77
2022/01/27 13:27:03;;;;;;;;;;;11.00;75.70;;;;;;4975316;28;19956;-79
2022/01/27 13:29:37;;;;;;;;;;;11.00;75.90;;;;;;4975068;28;20503;-80
2022/01/27 13:32:03;;;;;;;;;;;11.00;75.80;;;;;;4992570;28;19941;-79
2022/01/27 13:34:29;;;;;;;;;;;11.00;75.80;;;;;;4975069;28;20569;-78
2022/01/27 13:36:58;;;;;;;;;;;11.00;75.80;;;;;;4975608;28;19992;-79
2022/01/27 13:41:52;;;;;;;;;;;11.00;75.90;;;;;;4992222;28;19909;-79
2022/01/27 13:44:18;;;;;;;;;;;11.00;76.50;;;;;;4974429;28;19917;-78
2022/01/27 13:46:46;;;;;;;;;;;11.00;75.90;;;;;;4974196;28;19916;-80
2022/01/27 13:49:13;;;;;;;;;;;11.00;75.80;;;;;;4975084;28;19910;-78
2022/01/27 13:51:58;;;;;;;;;;;11.00;75.80;;;;;;4974745;28;19914;-80
2022/01/27 13:54:34;;;;;;;;;;;11.00;75.90;;;;;;4974683;28;20012;-78
2022/01/27 13:57:07;;;;;;;;;;;11.00;75.80;;;;;;4975083;28;19906;-77
2022/01/27 13:59:56;;;;;;;;;;;11.00;75.90;;;;;;4975362;28;19984;-81
2022/01/27 14:02:28;;;;;;;;;;;11.00;75.90;;;;;;4976589;28;19914;-78
2022/01/27 14:04:55;;;;;;;;;;;11.00;76.00;;;;;;4974405;28;19960;-79
2022/01/27 14:07:25;;;;;;;;;;;11.00;76.00;;;;;;4956788;28;19945;-80
2022/01/27 14:09:52;;;;;;;;;;;11.00;76.00;;;;;;4955290;28;19910;-79
2022/01/27 14:12:21;;;;;;;;;;;11.00;76.10;;;;;;4968633;28;19914;-79
2022/01/27 14:14:52;;;;;;;;;;;11.00;76.10;;;;;;4970863;28;19917;-80
2022/01/27 14:17:23;;;;;;;;;;;11.40;76.90;;;;;;4974362;28;20325;-79
2022/01/27 14:19:48;;;;;;;;;;;11.00;76.10;;;;;;4991671;28;19910;-79
2022/01/27 14:22:19;;;;;;;;;;;11.00;76.30;;;;;;4974450;28;20281;-80
2022/01/27 14:25:07;;;;;;;;;;;11.00;76.10;;;;;;4975591;28;20404;-80
2022/01/27 14:27:40;;;;;;;;;;;11.00;76.20;;;;;;4974378;28;19910;-80
2022/01/27 14:30:07;;;;;;;;;;;11.00;76.20;;;;;;4988970;28;19916;-79
2022/01/27 14:32:33;;;;;;;;;;;11.00;76.30;;;;;;4954809;28;20628;-81
2022/01/27 14:34:59;;;;;;;;;;;11.10;76.40;;;;;;4972068;28;19924;-80
2022/01/27 14:37:24;;;;;;;;;;;11.00;76.30;;;;;;4974088;28;19914;-82
2022/01/27 14:39:50;;;;;;;;;;;11.00;76.20;;;;;;4973727;28;19916;-80
2022/01/27 14:42:18;;;;;;;;;;;11.00;76.30;;;;;;4973871;28;19914;-80
2022/01/27 14:44:44;;;;;;;;;;;11.00;76.30;;;;;;4973989;28;19957;-80
2022/01/27 14:47:10;;;;;;;;;;;11.00;76.50;;;;;;4973942;28;20416;-79
2022/01/27 14:49:40;;;;;;;;;;;11.00;76.50;;;;;;4973276;28;20408;-80
2022/01/27 14:52:10;;;;;;;;;;;10.90;76.60;;;;;;4973574;28;20059;-81
2022/01/27 14:54:36;;;;;;;;;;;10.90;76.50;;;;;;4972158;28;19913;-80
2022/01/27 14:57:01;;;;;;;;;;;11.00;76.60;;;;;;4973547;28;19906;-80
2022/01/27 14:59:28;;;;;;;;;;;10.90;76.60;;;;;;4973420;28;19937;-80
2022/01/27 15:01:54;;;;;;;;;;;11.00;76.70;;;;;;4973599;28;19909;-80
2022/01/27 15:04:19;;;;;;;;;;;10.90;76.70;;;;;;4973720;28;20355;-80
2022/01/27 15:06:44;;;;;;;;;;;10.90;76.70;;;;;;4973388;28;19916;-80
2022/01/27 15:09:10;;;;;;;;;;;10.90;76.70;;;;;;4973761;28;20292;-79